sensor_id;sensor_type;location;lat;lon;timestamp;P1;durP1;ratioP1;P2;durP2;ratioP2
82806;SDS011;72563;44.816;20.484;2024-01-30T00:01:15;35.00;;;16.60;;
82806;SDS011;72563;44.816;20.484;2024-01-30T00:03:41;28.35;;;12.82;;
82806;SDS011;72563;44.816;20.484;2024-01-30T00:06:07;28.55;;;12.38;;
82806;SDS011;72563;44.816;20.484;2024-01-30T00:08:36;23.70;;;10.57;;
82806;SDS011;72563;44.816;20.484;2024-01-30T00:11:01;21.27;;;10.88;;
82806;SDS011;72563;44.816;20.484;2024-01-30T00:13:27;23.70;;;10.52;;
82806;SDS011;72563;44.816;20.484;2024-01-30T00:15:52;24.67;;;10.32;;
82806;SDS011;72563;44.816;20.484;2024-01-30T00:18:19;24.25;;;10.25;;
82806;SDS011;72563;44.816;20.484;2024-01-30T00:20:45;24.40;;;11.50;;
82806;SDS011;72563;44.816;20.484;2024-01-30T00:23:11;24.63;;;11.55;;
82806;SDS011;72563;44.816;20.484;2024-01-30T00:25:36;22.05;;;10.70;;
82806;SDS011;72563;44.816;20.484;2024-01-30T00:28:02;25.17;;;10.43;;
82806;SDS011;72563;44.816;20.484;2024-01-30T00:30:28;22.70;;;10.65;;
82806;SDS011;72563;44.816;20.484;2024-01-30T00:32:53;22.35;;;10.35;;
82806;SDS011;72563;44.816;20.484;2024-01-30T00:35:19;25.20;;;11.63;;
82806;SDS011;72563;44.816;20.484;2024-01-30T00:37:45;29.30;;;12.80;;
82806;SDS011;72563;44.816;20.484;2024-01-30T00:40:10;28.23;;;13.18;;
82806;SDS011;72563;44.816;20.484;2024-01-30T00:42:41;26.77;;;12.02;;
82806;SDS011;72563;44.816;20.484;2024-01-30T00:45:11;27.23;;;13.20;;
82806;SDS011;72563;44.816;20.484;2024-01-30T00:47:38;33.65;;;15.18;;
82806;SDS011;72563;44.816;20.484;2024-01-30T00:50:03;43.80;;;18.63;;
82806;SDS011;72563;44.816;20.484;2024-01-30T00:52:30;41.80;;;19.40;;
82806;SDS011;72563;44.816;20.484;2024-01-30T00:54:55;36.80;;;17.85;;
82806;SDS011;72563;44.816;20.484;2024-01-30T00:57:21;42.85;;;19.45;;
82806;SDS011;72563;44.816;20.484;2024-01-30T00:59:46;40.38;;;19.40;;
82806;SDS011;72563;44.816;20.484;2024-01-30T01:02:12;45.63;;;19.77;;
82806;SDS011;72563;44.816;20.484;2024-01-30T01:04:37;39.67;;;19.40;;
82806;SDS011;72563;44.816;20.484;2024-01-30T01:07:03;39.75;;;19.38;;
82806;SDS011;72563;44.816;20.484;2024-01-30T01:09:28;42.55;;;20.00;;
82806;SDS011;72563;44.816;20.484;2024-01-30T01:11:54;42.47;;;20.80;;
82806;SDS011;72563;44.816;20.484;2024-01-30T01:14:19;33.72;;;15.43;;
82806;SDS011;72563;44.816;20.484;2024-01-30T01:16:45;30.35;;;15.32;;
82806;SDS011;72563;44.816;20.484;2024-01-30T01:19:10;27.38;;;12.57;;
82806;SDS011;72563;44.816;20.484;2024-01-30T01:21:36;32.90;;;13.98;;
82806;SDS011;72563;44.816;20.484;2024-01-30T01:24:01;31.90;;;15.38;;
82806;SDS011;72563;44.816;20.484;2024-01-30T01:26:27;37.47;;;16.25;;
82806;SDS011;72563;44.816;20.484;2024-01-30T01:28:53;39.55;;;20.08;;
82806;SDS011;72563;44.816;20.484;2024-01-30T01:31:18;47.55;;;22.33;;
82806;SDS011;72563;44.816;20.484;2024-01-30T01:33:44;46.38;;;24.25;;
82806;SDS011;72563;44.816;20.484;2024-01-30T01:36:09;43.33;;;21.10;;
82806;SDS011;72563;44.816;20.484;2024-01-30T01:38:35;52.00;;;24.75;;
82806;SDS011;72563;44.816;20.484;2024-01-30T01:41:00;47.45;;;22.23;;
82806;SDS011;72563;44.816;20.484;2024-01-30T01:43:26;57.72;;;27.52;;
82806;SDS011;72563;44.816;20.484;2024-01-30T01:45:52;53.40;;;26.10;;
82806;SDS011;72563;44.816;20.484;2024-01-30T01:48:17;52.17;;;26.45;;
82806;SDS011;72563;44.816;20.484;2024-01-30T01:50:44;58.80;;;25.83;;
82806;SDS011;72563;44.816;20.484;2024-01-30T01:53:10;54.53;;;25.05;;
82806;SDS011;72563;44.816;20.484;2024-01-30T01:55:35;53.42;;;23.80;;
82806;SDS011;72563;44.816;20.484;2024-01-30T01:58:02;53.03;;;24.25;;
82806;SDS011;72563;44.816;20.484;2024-01-30T02:00:27;51.83;;;22.38;;
82806;SDS011;72563;44.816;20.484;2024-01-30T02:02:54;45.75;;;21.17;;
82806;SDS011;72563;44.816;20.484;2024-01-30T02:05:20;49.30;;;20.95;;
82806;SDS011;72563;44.816;20.484;2024-01-30T02:07:46;45.47;;;22.33;;
82806;SDS011;72563;44.816;20.484;2024-01-30T02:10:12;48.00;;;21.08;;
82806;SDS011;72563;44.816;20.484;2024-01-30T02:12:38;49.10;;;22.40;;
82806;SDS011;72563;44.816;20.484;2024-01-30T02:15:04;51.53;;;22.42;;
82806;SDS011;72563;44.816;20.484;2024-01-30T02:17:30;47.60;;;21.85;;
82806;SDS011;72563;44.816;20.484;2024-01-30T02:19:56;46.65;;;20.90;;
82806;SDS011;72563;44.816;20.484;2024-01-30T02:22:22;45.40;;;20.63;;
82806;SDS011;72563;44.816;20.484;2024-01-30T02:24:48;41.75;;;18.88;;
82806;SDS011;72563;44.816;20.484;2024-01-30T02:27:14;40.05;;;18.50;;
82806;SDS011;72563;44.816;20.484;2024-01-30T02:29:40;36.85;;;17.92;;
82806;SDS011;72563;44.816;20.484;2024-01-30T02:32:06;41.00;;;18.83;;
82806;SDS011;72563;44.816;20.484;2024-01-30T02:34:32;40.15;;;18.80;;
82806;SDS011;72563;44.816;20.484;2024-01-30T02:36:58;35.58;;;16.08;;
82806;SDS011;72563;44.816;20.484;2024-01-30T02:39:24;32.28;;;15.98;;
82806;SDS011;72563;44.816;20.484;2024-01-30T02:41:49;29.05;;;14.38;;
82806;SDS011;72563;44.816;20.484;2024-01-30T02:44:15;26.90;;;12.98;;
82806;SDS011;72563;44.816;20.484;2024-01-30T02:46:40;30.65;;;13.88;;
82806;SDS011;72563;44.816;20.484;2024-01-30T02:49:06;29.98;;;14.35;;
82806;SDS011;72563;44.816;20.484;2024-01-30T02:51:32;29.83;;;13.02;;
82806;SDS011;72563;44.816;20.484;2024-01-30T02:53:57;28.98;;;14.07;;
82806;SDS011;72563;44.816;20.484;2024-01-30T02:56:23;28.65;;;13.73;;
82806;SDS011;72563;44.816;20.484;2024-01-30T02:58:48;31.70;;;14.15;;
82806;SDS011;72563;44.816;20.484;2024-01-30T03:01:14;33.38;;;14.63;;
82806;SDS011;72563;44.816;20.484;2024-01-30T03:03:39;25.77;;;13.02;;
82806;SDS011;72563;44.816;20.484;2024-01-30T03:06:05;28.35;;;14.70;;
82806;SDS011;72563;44.816;20.484;2024-01-30T03:08:32;32.53;;;14.07;;
82806;SDS011;72563;44.816;20.484;2024-01-30T03:10:57;29.60;;;14.07;;
82806;SDS011;72563;44.816;20.484;2024-01-30T03:13:23;30.95;;;14.80;;
82806;SDS011;72563;44.816;20.484;2024-01-30T03:15:50;32.40;;;15.32;;
82806;SDS011;72563;44.816;20.484;2024-01-30T03:18:15;33.03;;;15.13;;
82806;SDS011;72563;44.816;20.484;2024-01-30T03:20:41;31.35;;;15.73;;
82806;SDS011;72563;44.816;20.484;2024-01-30T03:23:06;32.38;;;15.40;;
82806;SDS011;72563;44.816;20.484;2024-01-30T03:25:32;30.48;;;15.02;;
82806;SDS011;72563;44.816;20.484;2024-01-30T03:27:57;29.38;;;14.10;;
82806;SDS011;72563;44.816;20.484;2024-01-30T03:30:23;33.28;;;15.60;;
82806;SDS011;72563;44.816;20.484;2024-01-30T03:32:48;33.63;;;15.93;;
82806;SDS011;72563;44.816;20.484;2024-01-30T03:35:14;31.58;;;15.80;;
82806;SDS011;72563;44.816;20.484;2024-01-30T03:37:40;31.33;;;15.48;;
82806;SDS011;72563;44.816;20.484;2024-01-30T03:40:05;31.70;;;14.45;;
82806;SDS011;72563;44.816;20.484;2024-01-30T03:42:31;34.45;;;15.27;;
82806;SDS011;72563;44.816;20.484;2024-01-30T03:44:57;31.75;;;15.93;;
82806;SDS011;72563;44.816;20.484;2024-01-30T03:47:22;32.75;;;16.05;;
82806;SDS011;72563;44.816;20.484;2024-01-30T03:49:48;33.90;;;17.48;;
82806;SDS011;72563;44.816;20.484;2024-01-30T03:52:13;35.47;;;16.90;;
82806;SDS011;72563;44.816;20.484;2024-01-30T03:54:39;36.03;;;16.65;;
82806;SDS011;72563;44.816;20.484;2024-01-30T03:57:04;37.08;;;16.33;;
82806;SDS011;72563;44.816;20.484;2024-01-30T03:59:30;35.20;;;16.85;;
82806;SDS011;72563;44.816;20.484;2024-01-30T04:01:56;31.27;;;16.35;;
82806;SDS011;72563;44.816;20.484;2024-01-30T04:04:21;37.75;;;16.40;;
82806;SDS011;72563;44.816;20.484;2024-01-30T04:06:48;33.53;;;16.23;;
82806;SDS011;72563;44.816;20.484;2024-01-30T04:09:13;35.95;;;16.15;;
82806;SDS011;72563;44.816;20.484;2024-01-30T04:11:39;33.20;;;16.45;;
82806;SDS011;72563;44.816;20.484;2024-01-30T04:14:05;42.05;;;19.52;;
82806;SDS011;72563;44.816;20.484;2024-01-30T04:16:31;34.05;;;17.70;;
82806;SDS011;72563;44.816;20.484;2024-01-30T04:18:57;32.50;;;16.38;;
82806;SDS011;72563;44.816;20.484;2024-01-30T04:21:23;30.80;;;14.57;;
82806;SDS011;72563;44.816;20.484;2024-01-30T04:23:50;33.10;;;15.82;;
82806;SDS011;72563;44.816;20.484;2024-01-30T04:26:16;29.05;;;14.88;;
82806;SDS011;72563;44.816;20.484;2024-01-30T04:28:43;32.75;;;15.45;;
82806;SDS011;72563;44.816;20.484;2024-01-30T04:31:09;33.97;;;15.63;;
82806;SDS011;72563;44.816;20.484;2024-01-30T04:33:35;32.30;;;15.55;;
82806;SDS011;72563;44.816;20.484;2024-01-30T04:36:01;36.15;;;16.83;;
82806;SDS011;72563;44.816;20.484;2024-01-30T04:38:26;36.28;;;17.60;;
82806;SDS011;72563;44.816;20.484;2024-01-30T04:40:52;31.40;;;16.20;;
82806;SDS011;72563;44.816;20.484;2024-01-30T04:43:18;33.97;;;15.40;;
82806;SDS011;72563;44.816;20.484;2024-01-30T04:45:44;32.38;;;15.57;;
82806;SDS011;72563;44.816;20.484;2024-01-30T04:48:09;28.85;;;14.00;;
82806;SDS011;72563;44.816;20.484;2024-01-30T04:50:35;32.15;;;15.85;;
82806;SDS011;72563;44.816;20.484;2024-01-30T04:53:01;33.67;;;15.70;;
82806;SDS011;72563;44.816;20.484;2024-01-30T04:55:26;30.20;;;14.43;;
82806;SDS011;72563;44.816;20.484;2024-01-30T04:57:52;28.80;;;14.70;;
82806;SDS011;72563;44.816;20.484;2024-01-30T05:00:18;31.25;;;14.35;;
82806;SDS011;72563;44.816;20.484;2024-01-30T05:02:43;28.15;;;13.48;;
82806;SDS011;72563;44.816;20.484;2024-01-30T05:05:10;28.17;;;12.90;;
82806;SDS011;72563;44.816;20.484;2024-01-30T05:07:36;26.90;;;13.65;;
82806;SDS011;72563;44.816;20.484;2024-01-30T05:10:02;28.42;;;12.25;;
82806;SDS011;72563;44.816;20.484;2024-01-30T05:12:28;24.85;;;12.85;;
82806;SDS011;72563;44.816;20.484;2024-01-30T05:14:54;28.83;;;13.30;;
82806;SDS011;72563;44.816;20.484;2024-01-30T05:17:20;26.13;;;14.25;;
82806;SDS011;72563;44.816;20.484;2024-01-30T05:19:45;26.67;;;12.77;;
82806;SDS011;72563;44.816;20.484;2024-01-30T05:22:11;26.08;;;12.70;;
82806;SDS011;72563;44.816;20.484;2024-01-30T05:24:40;26.98;;;13.35;;
82806;SDS011;72563;44.816;20.484;2024-01-30T05:27:09;27.63;;;13.52;;
82806;SDS011;72563;44.816;20.484;2024-01-30T05:29:35;27.73;;;13.35;;
82806;SDS011;72563;44.816;20.484;2024-01-30T05:32:01;29.20;;;12.45;;
82806;SDS011;72563;44.816;20.484;2024-01-30T05:34:26;29.45;;;14.45;;
82806;SDS011;72563;44.816;20.484;2024-01-30T05:36:52;25.63;;;12.77;;
82806;SDS011;72563;44.816;20.484;2024-01-30T05:39:17;26.00;;;13.02;;
82806;SDS011;72563;44.816;20.484;2024-01-30T05:41:43;26.25;;;13.27;;
82806;SDS011;72563;44.816;20.484;2024-01-30T05:44:08;27.83;;;13.57;;
82806;SDS011;72563;44.816;20.484;2024-01-30T05:46:35;28.20;;;13.90;;
82806;SDS011;72563;44.816;20.484;2024-01-30T05:49:01;24.85;;;12.20;;
82806;SDS011;72563;44.816;20.484;2024-01-30T05:51:26;27.00;;;12.77;;
82806;SDS011;72563;44.816;20.484;2024-01-30T05:53:53;23.92;;;11.75;;
82806;SDS011;72563;44.816;20.484;2024-01-30T05:56:18;22.13;;;11.73;;
82806;SDS011;72563;44.816;20.484;2024-01-30T05:58:44;23.65;;;11.77;;
82806;SDS011;72563;44.816;20.484;2024-01-30T06:01:09;24.05;;;12.63;;
82806;SDS011;72563;44.816;20.484;2024-01-30T06:03:35;23.77;;;11.95;;
82806;SDS011;72563;44.816;20.484;2024-01-30T06:06:01;24.90;;;11.73;;
82806;SDS011;72563;44.816;20.484;2024-01-30T06:08:26;22.52;;;11.50;;
82806;SDS011;72563;44.816;20.484;2024-01-30T06:10:52;20.35;;;10.55;;
82806;SDS011;72563;44.816;20.484;2024-01-30T06:13:17;22.33;;;10.30;;
82806;SDS011;72563;44.816;20.484;2024-01-30T06:15:43;19.05;;;10.15;;
82806;SDS011;72563;44.816;20.484;2024-01-30T06:18:08;20.25;;;9.55;;
82806;SDS011;72563;44.816;20.484;2024-01-30T06:20:34;18.73;;;9.20;;
82806;SDS011;72563;44.816;20.484;2024-01-30T06:23:00;20.73;;;9.70;;
82806;SDS011;72563;44.816;20.484;2024-01-30T06:25:25;17.80;;;9.00;;
82806;SDS011;72563;44.816;20.484;2024-01-30T06:27:51;20.17;;;9.50;;
82806;SDS011;72563;44.816;20.484;2024-01-30T06:30:17;16.42;;;8.57;;
82806;SDS011;72563;44.816;20.484;2024-01-30T06:32:43;18.08;;;8.98;;
82806;SDS011;72563;44.816;20.484;2024-01-30T06:35:08;18.25;;;8.65;;
82806;SDS011;72563;44.816;20.484;2024-01-30T06:37:35;16.55;;;7.68;;
82806;SDS011;72563;44.816;20.484;2024-01-30T06:40:01;14.95;;;7.38;;
82806;SDS011;72563;44.816;20.484;2024-01-30T06:42:27;15.93;;;7.40;;
82806;SDS011;72563;44.816;20.484;2024-01-30T06:44:53;16.08;;;7.22;;
82806;SDS011;72563;44.816;20.484;2024-01-30T06:47:18;17.02;;;7.80;;
82806;SDS011;72563;44.816;20.484;2024-01-30T06:49:44;16.00;;;7.55;;
82806;SDS011;72563;44.816;20.484;2024-01-30T06:52:10;16.20;;;7.50;;
82806;SDS011;72563;44.816;20.484;2024-01-30T06:54:35;15.75;;;7.35;;
82806;SDS011;72563;44.816;20.484;2024-01-30T06:57:01;14.95;;;6.63;;
82806;SDS011;72563;44.816;20.484;2024-01-30T06:59:27;15.95;;;7.05;;
82806;SDS011;72563;44.816;20.484;2024-01-30T07:01:52;14.98;;;7.00;;
82806;SDS011;72563;44.816;20.484;2024-01-30T07:04:18;16.42;;;6.60;;
82806;SDS011;72563;44.816;20.484;2024-01-30T07:06:44;15.23;;;6.97;;
82806;SDS011;72563;44.816;20.484;2024-01-30T07:09:09;18.10;;;7.15;;
82806;SDS011;72563;44.816;20.484;2024-01-30T07:11:35;13.98;;;6.30;;
82806;SDS011;72563;44.816;20.484;2024-01-30T07:14:01;13.25;;;6.25;;
82806;SDS011;72563;44.816;20.484;2024-01-30T07:16:29;14.25;;;6.50;;
82806;SDS011;72563;44.816;20.484;2024-01-30T07:18:54;13.00;;;6.38;;
82806;SDS011;72563;44.816;20.484;2024-01-30T07:21:21;14.68;;;6.50;;
82806;SDS011;72563;44.816;20.484;2024-01-30T07:23:50;20.38;;;7.32;;
82806;SDS011;72563;44.816;20.484;2024-01-30T07:26:15;13.02;;;6.05;;
82806;SDS011;72563;44.816;20.484;2024-01-30T07:28:41;14.80;;;7.10;;
82806;SDS011;72563;44.816;20.484;2024-01-30T07:31:06;16.02;;;7.88;;
82806;SDS011;72563;44.816;20.484;2024-01-30T07:33:32;14.65;;;7.20;;
82806;SDS011;72563;44.816;20.484;2024-01-30T07:35:57;13.68;;;6.60;;
82806;SDS011;72563;44.816;20.484;2024-01-30T07:38:23;16.70;;;7.68;;
82806;SDS011;72563;44.816;20.484;2024-01-30T07:40:49;17.05;;;8.05;;
82806;SDS011;72563;44.816;20.484;2024-01-30T07:43:14;19.70;;;8.88;;
82806;SDS011;72563;44.816;20.484;2024-01-30T07:45:40;19.77;;;10.38;;
82806;SDS011;72563;44.816;20.484;2024-01-30T07:48:06;21.90;;;9.43;;
82806;SDS011;72563;44.816;20.484;2024-01-30T07:50:31;20.55;;;10.55;;
82806;SDS011;72563;44.816;20.484;2024-01-30T07:52:58;21.50;;;10.07;;
82806;SDS011;72563;44.816;20.484;2024-01-30T07:55:25;20.35;;;8.88;;
82806;SDS011;72563;44.816;20.484;2024-01-30T07:57:54;20.15;;;9.68;;
82806;SDS011;72563;44.816;20.484;2024-01-30T08:00:20;21.80;;;10.70;;
82806;SDS011;72563;44.816;20.484;2024-01-30T08:02:48;20.38;;;9.85;;
82806;SDS011;72563;44.816;20.484;2024-01-30T08:05:13;22.13;;;9.77;;
82806;SDS011;72563;44.816;20.484;2024-01-30T08:07:41;19.13;;;10.35;;
82806;SDS011;72563;44.816;20.484;2024-01-30T08:10:11;23.30;;;10.48;;
82806;SDS011;72563;44.816;20.484;2024-01-30T08:12:38;20.65;;;9.13;;
82806;SDS011;72563;44.816;20.484;2024-01-30T08:15:04;23.55;;;11.68;;
82806;SDS011;72563;44.816;20.484;2024-01-30T08:17:30;22.83;;;10.57;;
82806;SDS011;72563;44.816;20.484;2024-01-30T08:19:55;25.27;;;11.93;;
82806;SDS011;72563;44.816;20.484;2024-01-30T08:22:21;20.75;;;10.27;;
82806;SDS011;72563;44.816;20.484;2024-01-30T08:24:46;20.30;;;10.57;;
82806;SDS011;72563;44.816;20.484;2024-01-30T08:27:12;21.33;;;11.20;;
82806;SDS011;72563;44.816;20.484;2024-01-30T08:29:37;18.35;;;10.38;;
82806;SDS011;72563;44.816;20.484;2024-01-30T08:32:06;19.17;;;9.38;;
82806;SDS011;72563;44.816;20.484;2024-01-30T08:34:32;18.88;;;9.80;;
82806;SDS011;72563;44.816;20.484;2024-01-30T08:36:58;17.63;;;8.93;;
82806;SDS011;72563;44.816;20.484;2024-01-30T08:39:23;19.20;;;9.23;;
82806;SDS011;72563;44.816;20.484;2024-01-30T08:41:49;18.70;;;8.07;;
82806;SDS011;72563;44.816;20.484;2024-01-30T08:44:15;18.55;;;8.23;;
82806;SDS011;72563;44.816;20.484;2024-01-30T08:46:41;15.75;;;8.05;;
82806;SDS011;72563;44.816;20.484;2024-01-30T08:49:07;19.00;;;8.80;;
82806;SDS011;72563;44.816;20.484;2024-01-30T08:51:33;16.42;;;8.05;;
82806;SDS011;72563;44.816;20.484;2024-01-30T08:53:59;15.50;;;7.82;;
82806;SDS011;72563;44.816;20.484;2024-01-30T08:56:25;17.42;;;8.45;;
82806;SDS011;72563;44.816;20.484;2024-01-30T08:58:51;15.55;;;8.32;;
82806;SDS011;72563;44.816;20.484;2024-01-30T09:01:16;17.80;;;8.15;;
82806;SDS011;72563;44.816;20.484;2024-01-30T09:03:42;15.88;;;8.45;;
82806;SDS011;72563;44.816;20.484;2024-01-30T09:06:10;15.13;;;7.72;;
82806;SDS011;72563;44.816;20.484;2024-01-30T09:08:37;11.98;;;4.55;;
82806;SDS011;72563;44.816;20.484;2024-01-30T09:11:12;8.50;;;3.95;;
82806;SDS011;72563;44.816;20.484;2024-01-30T09:13:38;10.02;;;5.10;;
82806;SDS011;72563;44.816;20.484;2024-01-30T09:16:04;12.02;;;6.30;;
82806;SDS011;72563;44.816;20.484;2024-01-30T09:18:30;15.45;;;7.07;;
82806;SDS011;72563;44.816;20.484;2024-01-30T09:20:56;13.60;;;7.15;;
82806;SDS011;72563;44.816;20.484;2024-01-30T09:23:21;12.20;;;6.80;;
82806;SDS011;72563;44.816;20.484;2024-01-30T09:25:47;12.77;;;7.45;;
82806;SDS011;72563;44.816;20.484;2024-01-30T09:28:13;13.05;;;7.07;;
82806;SDS011;72563;44.816;20.484;2024-01-30T09:30:39;13.82;;;7.85;;
82806;SDS011;72563;44.816;20.484;2024-01-30T09:33:04;15.23;;;7.63;;
82806;SDS011;72563;44.816;20.484;2024-01-30T09:35:30;12.90;;;7.45;;
82806;SDS011;72563;44.816;20.484;2024-01-30T09:37:56;12.18;;;6.85;;
82806;SDS011;72563;44.816;20.484;2024-01-30T09:40:22;12.88;;;6.88;;
82806;SDS011;72563;44.816;20.484;2024-01-30T09:42:48;13.63;;;7.88;;
82806;SDS011;72563;44.816;20.484;2024-01-30T09:45:19;14.13;;;8.38;;
82806;SDS011;72563;44.816;20.484;2024-01-30T09:47:45;13.90;;;7.95;;
82806;SDS011;72563;44.816;20.484;2024-01-30T09:50:12;14.30;;;7.80;;
82806;SDS011;72563;44.816;20.484;2024-01-30T09:52:39;13.93;;;7.95;;
82806;SDS011;72563;44.816;20.484;2024-01-30T09:55:05;14.52;;;8.85;;
82806;SDS011;72563;44.816;20.484;2024-01-30T09:57:32;16.88;;;10.20;;
82806;SDS011;72563;44.816;20.484;2024-01-30T09:59:57;16.95;;;9.95;;
82806;SDS011;72563;44.816;20.484;2024-01-30T10:02:23;15.25;;;9.40;;
82806;SDS011;72563;44.816;20.484;2024-01-30T10:04:49;18.13;;;10.27;;
82806;SDS011;72563;44.816;20.484;2024-01-30T10:07:16;17.17;;;10.18;;
82806;SDS011;72563;44.816;20.484;2024-01-30T10:09:42;14.20;;;8.95;;
82806;SDS011;72563;44.816;20.484;2024-01-30T10:12:11;16.98;;;9.30;;
82806;SDS011;72563;44.816;20.484;2024-01-30T10:14:38;15.05;;;8.95;;
82806;SDS011;72563;44.816;20.484;2024-01-30T10:17:04;15.80;;;9.27;;
82806;SDS011;72563;44.816;20.484;2024-01-30T10:19:31;15.75;;;8.57;;
82806;SDS011;72563;44.816;20.484;2024-01-30T10:21:56;14.55;;;9.02;;
82806;SDS011;72563;44.816;20.484;2024-01-30T10:24:28;14.48;;;8.77;;
82806;SDS011;72563;44.816;20.484;2024-01-30T10:26:57;15.63;;;9.23;;
82806;SDS011;72563;44.816;20.484;2024-01-30T10:29:22;15.35;;;9.57;;
82806;SDS011;72563;44.816;20.484;2024-01-30T10:32:01;16.98;;;9.85;;
82806;SDS011;72563;44.816;20.484;2024-01-30T10:34:27;15.38;;;9.65;;
82806;SDS011;72563;44.816;20.484;2024-01-30T10:37:07;16.17;;;9.30;;
82806;SDS011;72563;44.816;20.484;2024-01-30T10:39:41;14.13;;;8.00;;
82806;SDS011;72563;44.816;20.484;2024-01-30T10:42:12;15.05;;;9.15;;
82806;SDS011;72563;44.816;20.484;2024-01-30T10:45:00;12.35;;;8.15;;
82806;SDS011;72563;44.816;20.484;2024-01-30T10:47:35;14.40;;;8.52;;
82806;SDS011;72563;44.816;20.484;2024-01-30T10:50:04;12.90;;;7.70;;
82806;SDS011;72563;44.816;20.484;2024-01-30T10:52:30;12.77;;;7.20;;
82806;SDS011;72563;44.816;20.484;2024-01-30T10:54:57;11.88;;;7.00;;
82806;SDS011;72563;44.816;20.484;2024-01-30T10:57:25;12.55;;;7.18;;
82806;SDS011;72563;44.816;20.484;2024-01-30T10:59:58;12.95;;;7.72;;
82806;SDS011;72563;44.816;20.484;2024-01-30T11:02:25;12.23;;;6.85;;
82806;SDS011;72563;44.816;20.484;2024-01-30T11:04:58;12.68;;;7.00;;
82806;SDS011;72563;44.816;20.484;2024-01-30T11:07:27;11.55;;;6.63;;
82806;SDS011;72563;44.816;20.484;2024-01-30T11:09:59;10.25;;;6.10;;
82806;SDS011;72563;44.816;20.484;2024-01-30T11:12:27;13.93;;;7.05;;
82806;SDS011;72563;44.816;20.484;2024-01-30T11:20:09;10.48;;;6.50;;
82806;SDS011;72563;44.816;20.484;2024-01-30T11:22:44;10.48;;;5.97;;
82806;SDS011;72563;44.816;20.484;2024-01-30T11:25:11;11.38;;;6.32;;
82806;SDS011;72563;44.816;20.484;2024-01-30T11:27:41;9.07;;;5.30;;
82806;SDS011;72563;44.816;20.484;2024-01-30T11:30:07;9.43;;;5.43;;
82806;SDS011;72563;44.816;20.484;2024-01-30T11:32:33;9.27;;;5.93;;
82806;SDS011;72563;44.816;20.484;2024-01-30T11:34:59;10.45;;;5.22;;
82806;SDS011;72563;44.816;20.484;2024-01-30T11:37:27;9.95;;;5.38;;
82806;SDS011;72563;44.816;20.484;2024-01-30T11:39:55;12.85;;;5.30;;
82806;SDS011;72563;44.816;20.484;2024-01-30T11:42:22;10.82;;;5.90;;
82806;SDS011;72563;44.816;20.484;2024-01-30T11:44:52;9.55;;;5.55;;
82806;SDS011;72563;44.816;20.484;2024-01-30T11:47:17;10.20;;;5.40;;
82806;SDS011;72563;44.816;20.484;2024-01-30T11:49:43;11.48;;;6.22;;
82806;SDS011;72563;44.816;20.484;2024-01-30T11:52:09;10.65;;;5.78;;
82806;SDS011;72563;44.816;20.484;2024-01-30T11:54:39;12.60;;;6.70;;
82806;SDS011;72563;44.816;20.484;2024-01-30T11:57:05;10.63;;;6.28;;
82806;SDS011;72563;44.816;20.484;2024-01-30T11:59:30;12.25;;;7.10;;
82806;SDS011;72563;44.816;20.484;2024-01-30T12:01:56;13.57;;;7.90;;
82806;SDS011;72563;44.816;20.484;2024-01-30T12:04:21;12.95;;;7.70;;
82806;SDS011;72563;44.816;20.484;2024-01-30T12:06:50;11.07;;;6.63;;
82806;SDS011;72563;44.816;20.484;2024-01-30T12:09:16;10.63;;;6.38;;
82806;SDS011;72563;44.816;20.484;2024-01-30T12:11:45;11.85;;;6.90;;
82806;SDS011;72563;44.816;20.484;2024-01-30T12:14:11;11.25;;;6.63;;
82806;SDS011;72563;44.816;20.484;2024-01-30T12:16:38;11.90;;;7.70;;
82806;SDS011;72563;44.816;20.484;2024-01-30T12:19:03;13.32;;;6.82;;
82806;SDS011;72563;44.816;20.484;2024-01-30T12:21:29;14.10;;;6.47;;
82806;SDS011;72563;44.816;20.484;2024-01-30T12:23:58;12.65;;;6.63;;
82806;SDS011;72563;44.816;20.484;2024-01-30T12:26:25;12.52;;;6.65;;
82806;SDS011;72563;44.816;20.484;2024-01-30T12:28:53;11.73;;;5.72;;
82806;SDS011;72563;44.816;20.484;2024-01-30T12:31:27;12.48;;;7.07;;
82806;SDS011;72563;44.816;20.484;2024-01-30T12:33:53;12.13;;;5.90;;
82806;SDS011;72563;44.816;20.484;2024-01-30T12:36:19;9.93;;;5.75;;
82806;SDS011;72563;44.816;20.484;2024-01-30T12:38:45;10.20;;;5.97;;
82806;SDS011;72563;44.816;20.484;2024-01-30T12:41:11;10.88;;;6.38;;
82806;SDS011;72563;44.816;20.484;2024-01-30T12:43:37;12.00;;;6.15;;
82806;SDS011;72563;44.816;20.484;2024-01-30T12:46:02;11.43;;;5.70;;
82806;SDS011;72563;44.816;20.484;2024-01-30T12:48:28;8.73;;;4.90;;
82806;SDS011;72563;44.816;20.484;2024-01-30T12:50:55;10.10;;;5.47;;
82806;SDS011;72563;44.816;20.484;2024-01-30T12:53:21;10.25;;;5.22;;
82806;SDS011;72563;44.816;20.484;2024-01-30T12:55:47;10.55;;;4.93;;
82806;SDS011;72563;44.816;20.484;2024-01-30T12:58:14;8.88;;;4.78;;
82806;SDS011;72563;44.816;20.484;2024-01-30T13:00:40;7.90;;;3.67;;
82806;SDS011;72563;44.816;20.484;2024-01-30T13:03:09;8.27;;;3.67;;
82806;SDS011;72563;44.816;20.484;2024-01-30T13:05:35;8.40;;;3.78;;
82806;SDS011;72563;44.816;20.484;2024-01-30T13:08:01;9.02;;;3.90;;
82806;SDS011;72563;44.816;20.484;2024-01-30T13:10:27;8.57;;;4.00;;
82806;SDS011;72563;44.816;20.484;2024-01-30T13:12:53;8.93;;;3.95;;
82806;SDS011;72563;44.816;20.484;2024-01-30T13:15:18;9.35;;;4.03;;
82806;SDS011;72563;44.816;20.484;2024-01-30T13:17:44;9.18;;;4.22;;
82806;SDS011;72563;44.816;20.484;2024-01-30T13:20:12;8.73;;;3.78;;
82806;SDS011;72563;44.816;20.484;2024-01-30T13:22:43;8.75;;;3.92;;
82806;SDS011;72563;44.816;20.484;2024-01-30T13:25:08;8.43;;;3.15;;
82806;SDS011;72563;44.816;20.484;2024-01-30T13:27:34;7.40;;;3.30;;
82806;SDS011;72563;44.816;20.484;2024-01-30T13:30:00;8.57;;;4.72;;
82806;SDS011;72563;44.816;20.484;2024-01-30T13:32:26;8.25;;;3.60;;
82806;SDS011;72563;44.816;20.484;2024-01-30T13:34:51;7.30;;;3.65;;
82806;SDS011;72563;44.816;20.484;2024-01-30T13:37:17;8.05;;;4.00;;
82806;SDS011;72563;44.816;20.484;2024-01-30T13:39:43;8.30;;;3.80;;
82806;SDS011;72563;44.816;20.484;2024-01-30T13:42:08;9.60;;;4.20;;
82806;SDS011;72563;44.816;20.484;2024-01-30T13:44:35;11.13;;;4.57;;
82806;SDS011;72563;44.816;20.484;2024-01-30T13:47:01;9.63;;;4.53;;
82806;SDS011;72563;44.816;20.484;2024-01-30T13:49:27;8.75;;;4.07;;
82806;SDS011;72563;44.816;20.484;2024-01-30T13:51:53;9.75;;;4.60;;
82806;SDS011;72563;44.816;20.484;2024-01-30T13:54:18;9.10;;;4.38;;
82806;SDS011;72563;44.816;20.484;2024-01-30T13:56:44;11.07;;;4.22;;
82806;SDS011;72563;44.816;20.484;2024-01-30T13:59:09;9.98;;;4.45;;
82806;SDS011;72563;44.816;20.484;2024-01-30T14:01:35;9.82;;;4.70;;
82806;SDS011;72563;44.816;20.484;2024-01-30T14:04:01;10.68;;;5.00;;
82806;SDS011;72563;44.816;20.484;2024-01-30T14:06:26;11.40;;;4.18;;
82806;SDS011;72563;44.816;20.484;2024-01-30T14:08:52;11.02;;;5.20;;
82806;SDS011;72563;44.816;20.484;2024-01-30T14:11:18;14.05;;;5.50;;
82806;SDS011;72563;44.816;20.484;2024-01-30T14:13:43;11.85;;;5.30;;
82806;SDS011;72563;44.816;20.484;2024-01-30T14:16:09;10.20;;;5.18;;